Terminal Aerodrome Forecast
Issued by NWS North Platte, NE

Home | Current Version | Previous Version | Text Only | Print | Product List | Glossary On
Versions: 1 2 3 4 5 6 7 8 9 10 11 12 13 14 15 16
000
FTUS43 KLBF 171121
TAFVTN
TAF
KVTN 171121Z 1712/1812 27007KT P6SM SCT200
     FM171500 29012KT P6SM SCT150
     FM171700 31018G25KT P6SM SCT200
     FM172100 31012KT P6SM FEW250
     FM180000 14006KT P6SM SCT250
     FM180400 16013KT P6SM BKN120
     FM180800 20018G27KT P6SM BKN100
     FM181000 20017G25KT P6SM BKN130=

USA.gov is the U.S. government's official web portal to all federal, state and local government web resources and services.